Nos coordonnées

Nous sommes à votre écoute du lundi au dimanche de 10:00 à 19:00 au :

+32 (0)495 19 89 53

 

Adresse d'exploitation Adresse de facturation
Chaussée de Nivelles, 629
6230 Buzet
Belgique
Kouter 107/2
9000 Gent
Belgique

contact @ blackhelicopters.be (n'oubliez pas de supprimer les espaces)


Nous retrouver

Il est très fortement conseillé de nous appeler avant de venir sur le terrain, nous pouvons être en mission ou en vol!

 

La carte ci-dessous est interactive, cherchez vos itinéraires, déplacez la pour vous retrouver.

News

Votre panier

Le panier est vide

Météo Charleroi

METAR
EBCI 042350Z 30005KT 260V340 4500 BR BKN005 06/06 Q1038 TEMPO BKN004 =
EBCI 042310Z 0500/0606 27005KT 6000 SCT008 BKN030 PROB30 TEMPO 0500/0505 BKN008 TEMPO 0505/0509 4000 -RA -SHRA SCT004 BKN006 PROB40 TEMPO 0505/0509 2500 -RADZ BKN004 BECMG 0507/0509 36013KT PROB40 TEMPO 0604/0606 2500 BR BKN003
TAF
EBCI 042310Z 0500/0606 27005KT 6000 SCT008 BKN030 PROB30 TEMPO 0500/0505 BKN008 TEMPO 0505/0509 4000 -RA -SHRA SCT004 BKN006 PROB40 TEMPO 0505/0509 2500 -RADZ BKN004 BECMG 0507/0509 36013KT PROB40 TEMPO 0604/0606 2500 BR BKN003 =
Lever / Coucher : 07:10 / 16:43 UTC (Buzet 2023-02-05)